sensor_id;sensor_type;location;lat;lon;timestamp;temperature;humidity
10175;DHT22;18221;38.704;0.152;2023-04-30T00:03:06;19.40;99.90
10175;DHT22;18221;38.704;0.152;2023-04-30T00:05:34;19.40;99.90
10175;DHT22;18221;38.704;0.152;2023-04-30T00:08:03;19.40;99.90
10175;DHT22;18221;38.704;0.152;2023-04-30T00:10:32;19.50;99.90
10175;DHT22;18221;38.704;0.152;2023-04-30T00:13:00;19.50;99.90
10175;DHT22;18221;38.704;0.152;2023-04-30T00:15:28;19.50;99.90
10175;DHT22;18221;38.704;0.152;2023-04-30T00:17:57;19.50;99.90
10175;DHT22;18221;38.704;0.152;2023-04-30T00:20:27;19.50;99.90
10175;DHT22;18221;38.704;0.152;2023-04-30T00:22:55;19.50;99.90
10175;DHT22;18221;38.704;0.152;2023-04-30T00:25:23;19.50;99.90
10175;DHT22;18221;38.704;0.152;2023-04-30T00:27:52;19.40;99.90
10175;DHT22;18221;38.704;0.152;2023-04-30T00:30:20;19.50;99.90
10175;DHT22;18221;38.704;0.152;2023-04-30T00:32:48;19.50;99.90
10175;DHT22;18221;38.704;0.152;2023-04-30T00:35:17;19.50;99.90
10175;DHT22;18221;38.704;0.152;2023-04-30T00:37:47;19.60;99.90
10175;DHT22;18221;38.704;0.152;2023-04-30T00:40:15;19.60;99.90
10175;DHT22;18221;38.704;0.152;2023-04-30T00:42:44;19.60;99.90
10175;DHT22;18221;38.704;0.152;2023-04-30T00:45:19;19.60;99.90
10175;DHT22;18221;38.704;0.152;2023-04-30T00:47:48;19.70;99.90
10175;DHT22;18221;38.704;0.152;2023-04-30T00:50:17;19.70;99.90
10175;DHT22;18221;38.704;0.152;2023-04-30T00:52:46;19.70;99.90
10175;DHT22;18221;38.704;0.152;2023-04-30T00:55:15;19.70;99.90
10175;DHT22;18221;38.704;0.152;2023-04-30T00:57:45;19.70;99.90
10175;DHT22;18221;38.704;0.152;2023-04-30T01:00:14;19.70;99.90
10175;DHT22;18221;38.704;0.152;2023-04-30T01:02:43;19.70;99.90
10175;DHT22;18221;38.704;0.152;2023-04-30T01:05:11;19.70;99.90
10175;DHT22;18221;38.704;0.152;2023-04-30T01:07:39;19.70;99.90
10175;DHT22;18221;38.704;0.152;2023-04-30T01:10:14;19.70;99.90
10175;DHT22;18221;38.704;0.152;2023-04-30T01:12:49;19.70;99.90
10175;DHT22;18221;38.704;0.152;2023-04-30T01:15:44;19.60;99.90
10175;DHT22;18221;38.704;0.152;2023-04-30T01:18:24;19.60;99.90
10175;DHT22;18221;38.704;0.152;2023-04-30T01:21:01;19.60;99.90
10175;DHT22;18221;38.704;0.152;2023-04-30T01:23:47;19.70;99.90
10175;DHT22;18221;38.704;0.152;2023-04-30T01:26:42;19.60;99.90
10175;DHT22;18221;38.704;0.152;2023-04-30T01:29:21;19.60;99.90
10175;DHT22;18221;38.704;0.152;2023-04-30T01:31:54;19.60;99.90
10175;DHT22;18221;38.704;0.152;2023-04-30T01:34:30;19.60;99.90
10175;DHT22;18221;38.704;0.152;2023-04-30T01:37:51;19.60;99.90
10175;DHT22;18221;38.704;0.152;2023-04-30T01:40:43;19.60;99.90
10175;DHT22;18221;38.704;0.152;2023-04-30T01:43:24;19.60;99.90
10175;DHT22;18221;38.704;0.152;2023-04-30T01:46:18;19.50;99.90
10175;DHT22;18221;38.704;0.152;2023-04-30T01:49:00;19.50;99.90
10175;DHT22;18221;38.704;0.152;2023-04-30T01:51:40;19.50;99.90
10175;DHT22;18221;38.704;0.152;2023-04-30T01:54:16;19.50;99.90
10175;DHT22;18221;38.704;0.152;2023-04-30T01:56:55;19.50;99.90
10175;DHT22;18221;38.704;0.152;2023-04-30T01:59:38;19.50;99.90
10175;DHT22;18221;38.704;0.152;2023-04-30T02:02:09;19.50;99.90
10175;DHT22;18221;38.704;0.152;2023-04-30T02:04:37;19.40;99.90
10175;DHT22;18221;38.704;0.152;2023-04-30T02:07:05;19.40;99.90
10175;DHT22;18221;38.704;0.152;2023-04-30T02:09:34;19.40;99.90
10175;DHT22;18221;38.704;0.152;2023-04-30T02:12:02;19.30;99.90
10175;DHT22;18221;38.704;0.152;2023-04-30T02:14:31;19.30;99.90
10175;DHT22;18221;38.704;0.152;2023-04-30T02:16:59;19.20;99.90
10175;DHT22;18221;38.704;0.152;2023-04-30T02:19:29;19.20;99.90
10175;DHT22;18221;38.704;0.152;2023-04-30T02:21:59;19.30;99.90
10175;DHT22;18221;38.704;0.152;2023-04-30T02:24:28;19.30;99.90
10175;DHT22;18221;38.704;0.152;2023-04-30T02:26:56;19.30;99.90
10175;DHT22;18221;38.704;0.152;2023-04-30T02:29:24;19.30;99.90
10175;DHT22;18221;38.704;0.152;2023-04-30T02:31:56;19.20;99.90
10175;DHT22;18221;38.704;0.152;2023-04-30T02:34:25;19.20;99.90
10175;DHT22;18221;38.704;0.152;2023-04-30T02:36:55;19.30;99.90
10175;DHT22;18221;38.704;0.152;2023-04-30T02:39:23;19.30;99.90
10175;DHT22;18221;38.704;0.152;2023-04-30T02:41:52;19.30;99.90
10175;DHT22;18221;38.704;0.152;2023-04-30T02:44:20;19.30;99.90
10175;DHT22;18221;38.704;0.152;2023-04-30T02:46:48;19.30;99.90
10175;DHT22;18221;38.704;0.152;2023-04-30T02:49:17;19.30;99.90
10175;DHT22;18221;38.704;0.152;2023-04-30T02:51:48;19.30;99.90
10175;DHT22;18221;38.704;0.152;2023-04-30T02:54:20;19.30;99.90
10175;DHT22;18221;38.704;0.152;2023-04-30T02:56:48;19.30;99.90
10175;DHT22;18221;38.704;0.152;2023-04-30T02:59:17;19.30;99.90
10175;DHT22;18221;38.704;0.152;2023-04-30T03:01:45;19.30;99.90
10175;DHT22;18221;38.704;0.152;2023-04-30T03:04:13;19.30;99.90
10175;DHT22;18221;38.704;0.152;2023-04-30T03:06:42;19.20;99.90
10175;DHT22;18221;38.704;0.152;2023-04-30T03:09:14;19.20;99.90
10175;DHT22;18221;38.704;0.152;2023-04-30T03:11:43;19.20;99.90
10175;DHT22;18221;38.704;0.152;2023-04-30T03:14:11;19.20;99.90
10175;DHT22;18221;38.704;0.152;2023-04-30T03:16:40;19.20;99.90
10175;DHT22;18221;38.704;0.152;2023-04-30T03:19:08;19.20;99.90
10175;DHT22;18221;38.704;0.152;2023-04-30T03:21:37;19.20;99.90
10175;DHT22;18221;38.704;0.152;2023-04-30T03:24:05;19.20;99.90
10175;DHT22;18221;38.704;0.152;2023-04-30T03:26:35;19.10;99.90
10175;DHT22;18221;38.704;0.152;2023-04-30T03:29:03;19.10;99.90
10175;DHT22;18221;38.704;0.152;2023-04-30T03:31:31;19.10;99.90
10175;DHT22;18221;38.704;0.152;2023-04-30T03:34:00;19.10;99.90
10175;DHT22;18221;38.704;0.152;2023-04-30T03:36:28;19.10;99.90
10175;DHT22;18221;38.704;0.152;2023-04-30T03:38:57;19.10;99.90
10175;DHT22;18221;38.704;0.152;2023-04-30T03:41:25;19.10;99.90
10175;DHT22;18221;38.704;0.152;2023-04-30T03:43:55;19.10;99.90
10175;DHT22;18221;38.704;0.152;2023-04-30T03:46:24;19.10;99.90
10175;DHT22;18221;38.704;0.152;2023-04-30T03:48:52;19.10;99.90
10175;DHT22;18221;38.704;0.152;2023-04-30T03:51:21;19.10;99.90
10175;DHT22;18221;38.704;0.152;2023-04-30T03:53:50;19.00;99.90
10175;DHT22;18221;38.704;0.152;2023-04-30T03:56:18;19.00;99.90
10175;DHT22;18221;38.704;0.152;2023-04-30T03:58:48;19.10;99.90
10175;DHT22;18221;38.704;0.152;2023-04-30T04:01:18;19.00;99.90
10175;DHT22;18221;38.704;0.152;2023-04-30T04:03:46;19.00;99.90
10175;DHT22;18221;38.704;0.152;2023-04-30T04:06:15;19.00;99.90
10175;DHT22;18221;38.704;0.152;2023-04-30T04:08:43;18.90;99.90
10175;DHT22;18221;38.704;0.152;2023-04-30T04:11:12;18.90;99.90
10175;DHT22;18221;38.704;0.152;2023-04-30T04:13:41;18.90;99.90
10175;DHT22;18221;38.704;0.152;2023-04-30T04:16:09;18.90;99.90
10175;DHT22;18221;38.704;0.152;2023-04-30T04:18:39;18.90;99.90
10175;DHT22;18221;38.704;0.152;2023-04-30T04:21:07;18.90;99.90
10175;DHT22;18221;38.704;0.152;2023-04-30T04:23:37;18.90;99.90
10175;DHT22;18221;38.704;0.152;2023-04-30T04:26:05;18.90;99.90
10175;DHT22;18221;38.704;0.152;2023-04-30T04:28:33;18.90;99.90
10175;DHT22;18221;38.704;0.152;2023-04-30T04:31:01;18.90;99.90
10175;DHT22;18221;38.704;0.152;2023-04-30T04:33:30;18.90;99.90
10175;DHT22;18221;38.704;0.152;2023-04-30T04:36:03;19.00;99.90
10175;DHT22;18221;38.704;0.152;2023-04-30T04:38:33;19.00;99.90
10175;DHT22;18221;38.704;0.152;2023-04-30T04:41:02;18.90;99.90
10175;DHT22;18221;38.704;0.152;2023-04-30T04:43:30;18.90;99.90
10175;DHT22;18221;38.704;0.152;2023-04-30T04:45:58;18.90;99.90
10175;DHT22;18221;38.704;0.152;2023-04-30T04:48:38;18.80;99.90
10175;DHT22;18221;38.704;0.152;2023-04-30T04:51:08;18.70;99.90
10175;DHT22;18221;38.704;0.152;2023-04-30T04:53:37;18.70;99.90
10175;DHT22;18221;38.704;0.152;2023-04-30T04:56:06;18.60;99.90
10175;DHT22;18221;38.704;0.152;2023-04-30T04:58:34;18.60;99.90
10175;DHT22;18221;38.704;0.152;2023-04-30T05:01:03;18.60;99.90
10175;DHT22;18221;38.704;0.152;2023-04-30T05:03:34;18.60;99.90
10175;DHT22;18221;38.704;0.152;2023-04-30T05:06:03;18.60;99.90
10175;DHT22;18221;38.704;0.152;2023-04-30T05:08:33;18.70;99.90
10175;DHT22;18221;38.704;0.152;2023-04-30T05:11:03;18.70;99.90
10175;DHT22;18221;38.704;0.152;2023-04-30T05:13:37;18.70;99.90
10175;DHT22;18221;38.704;0.152;2023-04-30T05:16:05;18.70;99.90
10175;DHT22;18221;38.704;0.152;2023-04-30T05:18:33;18.80;99.90
10175;DHT22;18221;38.704;0.152;2023-04-30T05:21:05;18.80;99.90
10175;DHT22;18221;38.704;0.152;2023-04-30T05:23:35;18.80;99.90
10175;DHT22;18221;38.704;0.152;2023-04-30T05:26:05;18.80;99.90
10175;DHT22;18221;38.704;0.152;2023-04-30T05:28:33;18.70;99.90
10175;DHT22;18221;38.704;0.152;2023-04-30T05:31:02;18.70;99.90
10175;DHT22;18221;38.704;0.152;2023-04-30T05:33:30;18.70;99.90
10175;DHT22;18221;38.704;0.152;2023-04-30T05:35:59;18.60;99.90
10175;DHT22;18221;38.704;0.152;2023-04-30T05:38:27;18.50;99.90
10175;DHT22;18221;38.704;0.152;2023-04-30T05:40:58;18.50;99.90
10175;DHT22;18221;38.704;0.152;2023-04-30T05:43:30;18.50;99.90
10175;DHT22;18221;38.704;0.152;2023-04-30T05:45:59;18.50;99.90
10175;DHT22;18221;38.704;0.152;2023-04-30T05:48:27;18.50;99.90
10175;DHT22;18221;38.704;0.152;2023-04-30T05:50:56;18.50;99.90
10175;DHT22;18221;38.704;0.152;2023-04-30T05:53:25;18.50;99.90
10175;DHT22;18221;38.704;0.152;2023-04-30T05:55:54;18.50;99.90
10175;DHT22;18221;38.704;0.152;2023-04-30T05:58:24;18.50;99.90
10175;DHT22;18221;38.704;0.152;2023-04-30T06:00:53;18.50;99.90
10175;DHT22;18221;38.704;0.152;2023-04-30T06:03:22;18.50;99.90
10175;DHT22;18221;38.704;0.152;2023-04-30T06:05:55;18.40;99.90
10175;DHT22;18221;38.704;0.152;2023-04-30T06:08:24;18.40;99.90
10175;DHT22;18221;38.704;0.152;2023-04-30T06:10:52;18.40;99.90
10175;DHT22;18221;38.704;0.152;2023-04-30T06:13:21;18.50;99.90
10175;DHT22;18221;38.704;0.152;2023-04-30T06:15:51;18.50;99.90
10175;DHT22;18221;38.704;0.152;2023-04-30T06:18:20;18.50;99.90
10175;DHT22;18221;38.704;0.152;2023-04-30T06:20:48;18.50;99.90
10175;DHT22;18221;38.704;0.152;2023-04-30T06:23:17;17.30;99.90
10175;DHT22;18221;38.704;0.152;2023-04-30T06:25:45;18.60;99.90
10175;DHT22;18221;38.704;0.152;2023-04-30T06:28:14;18.70;99.90
10175;DHT22;18221;38.704;0.152;2023-04-30T06:30:43;18.80;99.90
10175;DHT22;18221;38.704;0.152;2023-04-30T06:33:13;18.90;99.90
10175;DHT22;18221;38.704;0.152;2023-04-30T06:35:42;19.00;99.90
10175;DHT22;18221;38.704;0.152;2023-04-30T06:38:10;19.10;99.90
10175;DHT22;18221;38.704;0.152;2023-04-30T06:40:39;19.20;99.90
10175;DHT22;18221;38.704;0.152;2023-04-30T06:43:08;19.20;99.90
10175;DHT22;18221;38.704;0.152;2023-04-30T06:45:37;19.20;99.90
10175;DHT22;18221;38.704;0.152;2023-04-30T06:48:05;19.30;99.90
10175;DHT22;18221;38.704;0.152;2023-04-30T06:50:35;19.30;99.90
10175;DHT22;18221;38.704;0.152;2023-04-30T06:53:11;19.40;99.90
10175;DHT22;18221;38.704;0.152;2023-04-30T06:55:40;19.40;99.90
10175;DHT22;18221;38.704;0.152;2023-04-30T06:58:08;19.50;99.90
10175;DHT22;18221;38.704;0.152;2023-04-30T07:00:37;19.60;99.90
10175;DHT22;18221;38.704;0.152;2023-04-30T07:03:05;19.60;99.90
10175;DHT22;18221;38.704;0.152;2023-04-30T07:05:35;19.60;99.90
10175;DHT22;18221;38.704;0.152;2023-04-30T07:08:03;19.60;99.90
10175;DHT22;18221;38.704;0.152;2023-04-30T07:10:32;19.70;99.90
10175;DHT22;18221;38.704;0.152;2023-04-30T07:13:01;19.70;99.90
10175;DHT22;18221;38.704;0.152;2023-04-30T07:15:29;19.80;99.90
10175;DHT22;18221;38.704;0.152;2023-04-30T07:17:57;19.80;99.90
10175;DHT22;18221;38.704;0.152;2023-04-30T07:20:26;19.90;99.90
10175;DHT22;18221;38.704;0.152;2023-04-30T07:22:56;19.90;99.90
10175;DHT22;18221;38.704;0.152;2023-04-30T07:25:24;20.00;99.90
10175;DHT22;18221;38.704;0.152;2023-04-30T07:27:53;20.00;99.90
10175;DHT22;18221;38.704;0.152;2023-04-30T07:30:28;20.10;99.90
10175;DHT22;18221;38.704;0.152;2023-04-30T07:32:57;20.30;99.90
10175;DHT22;18221;38.704;0.152;2023-04-30T07:35:25;20.50;99.90
10175;DHT22;18221;38.704;0.152;2023-04-30T07:37:55;20.70;99.90
10175;DHT22;18221;38.704;0.152;2023-04-30T07:40:24;20.90;99.90
10175;DHT22;18221;38.704;0.152;2023-04-30T07:42:52;21.20;99.90
10175;DHT22;18221;38.704;0.152;2023-04-30T07:45:20;21.50;99.90
10175;DHT22;18221;38.704;0.152;2023-04-30T07:47:52;21.70;99.90
10175;DHT22;18221;38.704;0.152;2023-04-30T07:50:20;21.90;99.90
10175;DHT22;18221;38.704;0.152;2023-04-30T07:52:48;22.10;99.90
10175;DHT22;18221;38.704;0.152;2023-04-30T07:55:18;22.30;99.90
10175;DHT22;18221;38.704;0.152;2023-04-30T07:57:46;22.60;99.90
10175;DHT22;18221;38.704;0.152;2023-04-30T08:00:15;22.80;99.90
10175;DHT22;18221;38.704;0.152;2023-04-30T08:02:43;23.10;99.90
10175;DHT22;18221;38.704;0.152;2023-04-30T08:05:13;23.20;99.90
10175;DHT22;18221;38.704;0.152;2023-04-30T08:07:41;23.10;99.90
10175;DHT22;18221;38.704;0.152;2023-04-30T08:10:10;23.30;99.90
10175;DHT22;18221;38.704;0.152;2023-04-30T08:12:40;23.30;99.90
10175;DHT22;18221;38.704;0.152;2023-04-30T08:15:09;23.40;99.90
10175;DHT22;18221;38.704;0.152;2023-04-30T08:17:37;23.20;99.90
10175;DHT22;18221;38.704;0.152;2023-04-30T08:20:06;23.10;99.90
10175;DHT22;18221;38.704;0.152;2023-04-30T08:22:35;23.00;99.90
10175;DHT22;18221;38.704;0.152;2023-04-30T08:25:04;22.90;99.90
10175;DHT22;18221;38.704;0.152;2023-04-30T08:27:33;22.60;99.90
10175;DHT22;18221;38.704;0.152;2023-04-30T08:30:03;22.60;99.90
10175;DHT22;18221;38.704;0.152;2023-04-30T08:32:33;22.50;99.90
10175;DHT22;18221;38.704;0.152;2023-04-30T08:35:02;22.30;99.90
10175;DHT22;18221;38.704;0.152;2023-04-30T08:37:32;22.30;99.90
10175;DHT22;18221;38.704;0.152;2023-04-30T08:40:01;22.40;99.90
10175;DHT22;18221;38.704;0.152;2023-04-30T08:42:31;22.50;99.90
10175;DHT22;18221;38.704;0.152;2023-04-30T08:45:08;22.50;99.90
10175;DHT22;18221;38.704;0.152;2023-04-30T08:47:38;22.60;99.90
10175;DHT22;18221;38.704;0.152;2023-04-30T08:50:08;22.70;99.90
10175;DHT22;18221;38.704;0.152;2023-04-30T08:52:39;22.70;99.90
10175;DHT22;18221;38.704;0.152;2023-04-30T08:55:10;22.70;99.90
10175;DHT22;18221;38.704;0.152;2023-04-30T08:57:47;22.70;99.90
10175;DHT22;18221;38.704;0.152;2023-04-30T09:00:17;22.70;99.90
10175;DHT22;18221;38.704;0.152;2023-04-30T09:02:47;22.80;99.90
10175;DHT22;18221;38.704;0.152;2023-04-30T09:05:16;22.80;99.90
10175;DHT22;18221;38.704;0.152;2023-04-30T09:07:44;22.80;99.90
10175;DHT22;18221;38.704;0.152;2023-04-30T09:10:17;22.80;99.90
10175;DHT22;18221;38.704;0.152;2023-04-30T09:12:58;22.80;99.90
10175;DHT22;18221;38.704;0.152;2023-04-30T09:15:31;22.70;99.90
10175;DHT22;18221;38.704;0.152;2023-04-30T09:18:08;22.70;99.90
10175;DHT22;18221;38.704;0.152;2023-04-30T09:20:54;22.70;99.90
10175;DHT22;18221;38.704;0.152;2023-04-30T09:23:23;22.60;99.90
10175;DHT22;18221;38.704;0.152;2023-04-30T09:25:55;22.70;99.90
10175;DHT22;18221;38.704;0.152;2023-04-30T09:28:23;22.60;99.90
10175;DHT22;18221;38.704;0.152;2023-04-30T09:30:56;22.50;99.90
10175;DHT22;18221;38.704;0.152;2023-04-30T09:33:26;22.60;99.90
10175;DHT22;18221;38.704;0.152;2023-04-30T09:35:57;22.70;99.90
10175;DHT22;18221;38.704;0.152;2023-04-30T09:38:34;22.60;99.90
10175;DHT22;18221;38.704;0.152;2023-04-30T09:41:03;22.70;99.90
10175;DHT22;18221;38.704;0.152;2023-04-30T09:43:33;22.60;99.90
10175;DHT22;18221;38.704;0.152;2023-04-30T09:46:14;22.60;99.90
10175;DHT22;18221;38.704;0.152;2023-04-30T09:48:45;22.50;99.90
10175;DHT22;18221;38.704;0.152;2023-04-30T09:51:17;22.50;99.90
10175;DHT22;18221;38.704;0.152;2023-04-30T09:53:46;22.50;99.90
10175;DHT22;18221;38.704;0.152;2023-04-30T09:56:20;22.50;99.90
10175;DHT22;18221;38.704;0.152;2023-04-30T09:58:50;22.50;99.90
10175;DHT22;18221;38.704;0.152;2023-04-30T10:01:26;22.50;99.90
10175;DHT22;18221;38.704;0.152;2023-04-30T10:03:54;22.60;99.90
10175;DHT22;18221;38.704;0.152;2023-04-30T10:06:25;22.60;99.90
10175;DHT22;18221;38.704;0.152;2023-04-30T10:09:02;22.70;99.90
10175;DHT22;18221;38.704;0.152;2023-04-30T10:11:37;22.70;99.90
10175;DHT22;18221;38.704;0.152;2023-04-30T10:14:11;22.80;99.90
10175;DHT22;18221;38.704;0.152;2023-04-30T10:16:50;22.70;99.90
10175;DHT22;18221;38.704;0.152;2023-04-30T10:19:25;22.70;99.90
10175;DHT22;18221;38.704;0.152;2023-04-30T10:21:57;22.80;99.90
10175;DHT22;18221;38.704;0.152;2023-04-30T10:24:28;22.80;99.90
10175;DHT22;18221;38.704;0.152;2023-04-30T10:26:58;22.70;99.90
10175;DHT22;18221;38.704;0.152;2023-04-30T10:29:29;22.70;99.90
10175;DHT22;18221;38.704;0.152;2023-04-30T10:31:59;22.70;99.90
10175;DHT22;18221;38.704;0.152;2023-04-30T10:34:41;22.70;99.90
10175;DHT22;18221;38.704;0.152;2023-04-30T10:37:23;22.70;99.90
10175;DHT22;18221;38.704;0.152;2023-04-30T10:39:58;22.70;99.90
10175;DHT22;18221;38.704;0.152;2023-04-30T10:42:27;22.80;99.90
10175;DHT22;18221;38.704;0.152;2023-04-30T10:44:55;22.80;99.90
10175;DHT22;18221;38.704;0.152;2023-04-30T10:47:29;22.80;99.90
10175;DHT22;18221;38.704;0.152;2023-04-30T10:50:02;22.80;99.90
10175;DHT22;18221;38.704;0.152;2023-04-30T10:52:31;22.90;99.90
10175;DHT22;18221;38.704;0.152;2023-04-30T10:55:04;23.00;99.90
10175;DHT22;18221;38.704;0.152;2023-04-30T10:57:39;23.00;99.90
10175;DHT22;18221;38.704;0.152;2023-04-30T11:00:19;23.10;99.90
10175;DHT22;18221;38.704;0.152;2023-04-30T11:02:57;23.10;99.90
10175;DHT22;18221;38.704;0.152;2023-04-30T11:05:35;23.10;99.90
10175;DHT22;18221;38.704;0.152;2023-04-30T11:08:08;23.10;99.90
10175;DHT22;18221;38.704;0.152;2023-04-30T11:10:56;23.20;99.90
10175;DHT22;18221;38.704;0.152;2023-04-30T11:13:38;23.30;99.90
10175;DHT22;18221;38.704;0.152;2023-04-30T11:16:08;23.30;99.90
10175;DHT22;18221;38.704;0.152;2023-04-30T11:18:43;23.30;99.90
10175;DHT22;18221;38.704;0.152;2023-04-30T11:21:12;23.20;99.90
10175;DHT22;18221;38.704;0.152;2023-04-30T11:23:41;23.20;99.90
10175;DHT22;18221;38.704;0.152;2023-04-30T11:26:11;22.90;99.90
10175;DHT22;18221;38.704;0.152;2023-04-30T11:28:50;23.30;99.90
10175;DHT22;18221;38.704;0.152;2023-04-30T11:31:20;23.20;99.90
10175;DHT22;18221;38.704;0.152;2023-04-30T11:33:54;23.20;99.90
10175;DHT22;18221;38.704;0.152;2023-04-30T11:36:26;23.20;99.90
10175;DHT22;18221;38.704;0.152;2023-04-30T11:38:59;23.30;99.90
10175;DHT22;18221;38.704;0.152;2023-04-30T11:41:31;23.40;99.90
10175;DHT22;18221;38.704;0.152;2023-04-30T11:44:21;23.40;99.90
10175;DHT22;18221;38.704;0.152;2023-04-30T11:46:50;23.20;99.90
10175;DHT22;18221;38.704;0.152;2023-04-30T11:49:21;23.10;99.90
10175;DHT22;18221;38.704;0.152;2023-04-30T11:51:49;23.10;99.90
10175;DHT22;18221;38.704;0.152;2023-04-30T11:54:18;23.20;99.90
10175;DHT22;18221;38.704;0.152;2023-04-30T11:56:47;23.20;99.90
10175;DHT22;18221;38.704;0.152;2023-04-30T11:59:18;23.30;99.90
10175;DHT22;18221;38.704;0.152;2023-04-30T12:01:46;23.10;99.90
10175;DHT22;18221;38.704;0.152;2023-04-30T12:04:16;23.00;99.90
10175;DHT22;18221;38.704;0.152;2023-04-30T12:06:46;23.20;99.90
10175;DHT22;18221;38.704;0.152;2023-04-30T12:09:21;23.40;99.90
10175;DHT22;18221;38.704;0.152;2023-04-30T12:11:50;23.50;99.90
10175;DHT22;18221;38.704;0.152;2023-04-30T12:14:18;23.80;99.90
10175;DHT22;18221;38.704;0.152;2023-04-30T12:16:52;23.90;99.90
10175;DHT22;18221;38.704;0.152;2023-04-30T12:19:21;24.00;99.90
10175;DHT22;18221;38.704;0.152;2023-04-30T12:21:55;24.00;99.90
10175;DHT22;18221;38.704;0.152;2023-04-30T12:24:26;23.80;99.90
10175;DHT22;18221;38.704;0.152;2023-04-30T12:26:55;23.60;99.90
10175;DHT22;18221;38.704;0.152;2023-04-30T12:29:30;23.40;99.90
10175;DHT22;18221;38.704;0.152;2023-04-30T12:31:59;23.30;99.90
10175;DHT22;18221;38.704;0.152;2023-04-30T12:34:27;23.30;99.90
10175;DHT22;18221;38.704;0.152;2023-04-30T12:36:59;23.20;99.90
10175;DHT22;18221;38.704;0.152;2023-04-30T12:39:33;23.20;99.90
10175;DHT22;18221;38.704;0.152;2023-04-30T12:42:02;23.20;99.90
10175;DHT22;18221;38.704;0.152;2023-04-30T12:44:31;23.10;99.90
10175;DHT22;18221;38.704;0.152;2023-04-30T12:47:10;23.10;99.90
10175;DHT22;18221;38.704;0.152;2023-04-30T12:49:39;23.00;99.90
10175;DHT22;18221;38.704;0.152;2023-04-30T12:52:11;23.10;99.90
10175;DHT22;18221;38.704;0.152;2023-04-30T12:54:40;22.80;99.90
10175;DHT22;18221;38.704;0.152;2023-04-30T12:57:10;22.90;99.90
10175;DHT22;18221;38.704;0.152;2023-04-30T12:59:54;22.90;99.90
10175;DHT22;18221;38.704;0.152;2023-04-30T13:02:26;22.90;99.90
10175;DHT22;18221;38.704;0.152;2023-04-30T13:04:57;23.00;99.90
10175;DHT22;18221;38.704;0.152;2023-04-30T13:07:35;23.00;99.90
10175;DHT22;18221;38.704;0.152;2023-04-30T13:10:06;23.00;99.90
10175;DHT22;18221;38.704;0.152;2023-04-30T13:12:35;23.00;99.90
10175;DHT22;18221;38.704;0.152;2023-04-30T13:15:04;22.90;99.90
10175;DHT22;18221;38.704;0.152;2023-04-30T13:17:33;22.90;99.90
10175;DHT22;18221;38.704;0.152;2023-04-30T13:20:02;22.90;99.90
10175;DHT22;18221;38.704;0.152;2023-04-30T13:22:33;23.00;99.90
10175;DHT22;18221;38.704;0.152;2023-04-30T13:25:02;23.10;99.90
10175;DHT22;18221;38.704;0.152;2023-04-30T13:27:31;23.20;99.90
10175;DHT22;18221;38.704;0.152;2023-04-30T13:30:01;23.20;99.90
10175;DHT22;18221;38.704;0.152;2023-04-30T13:32:31;23.30;99.90
10175;DHT22;18221;38.704;0.152;2023-04-30T13:34:59;23.40;99.90
10175;DHT22;18221;38.704;0.152;2023-04-30T13:37:28;23.50;99.90
10175;DHT22;18221;38.704;0.152;2023-04-30T13:39:58;23.60;99.90
10175;DHT22;18221;38.704;0.152;2023-04-30T13:42:29;23.60;99.90
10175;DHT22;18221;38.704;0.152;2023-04-30T13:44:57;23.50;99.90
10175;DHT22;18221;38.704;0.152;2023-04-30T13:47:25;23.50;99.90
10175;DHT22;18221;38.704;0.152;2023-04-30T13:49:54;23.60;99.90
10175;DHT22;18221;38.704;0.152;2023-04-30T13:52:22;23.60;99.90
10175;DHT22;18221;38.704;0.152;2023-04-30T13:54:51;23.50;99.90
10175;DHT22;18221;38.704;0.152;2023-04-30T13:57:21;23.70;99.90
10175;DHT22;18221;38.704;0.152;2023-04-30T13:59:50;23.70;99.90
10175;DHT22;18221;38.704;0.152;2023-04-30T14:02:19;23.80;99.90
10175;DHT22;18221;38.704;0.152;2023-04-30T14:04:48;23.90;99.90
10175;DHT22;18221;38.704;0.152;2023-04-30T14:07:16;23.70;99.90
10175;DHT22;18221;38.704;0.152;2023-04-30T14:09:45;23.70;99.90
10175;DHT22;18221;38.704;0.152;2023-04-30T14:12:13;23.60;99.90
10175;DHT22;18221;38.704;0.152;2023-04-30T14:14:44;23.50;99.90
10175;DHT22;18221;38.704;0.152;2023-04-30T14:17:13;23.40;99.90
10175;DHT22;18221;38.704;0.152;2023-04-30T14:19:42;23.40;99.90
10175;DHT22;18221;38.704;0.152;2023-04-30T14:22:10;23.30;99.90
10175;DHT22;18221;38.704;0.152;2023-04-30T14:24:39;23.30;99.90
10175;DHT22;18221;38.704;0.152;2023-04-30T14:27:08;23.30;99.90
10175;DHT22;18221;38.704;0.152;2023-04-30T14:29:36;23.30;99.90
10175;DHT22;18221;38.704;0.152;2023-04-30T14:32:07;23.40;99.90
10175;DHT22;18221;38.704;0.152;2023-04-30T14:34:35;23.50;99.90
10175;DHT22;18221;38.704;0.152;2023-04-30T14:37:04;23.50;99.90
10175;DHT22;18221;38.704;0.152;2023-04-30T14:39:33;23.70;99.90
10175;DHT22;18221;38.704;0.152;2023-04-30T14:42:02;23.90;99.90
10175;DHT22;18221;38.704;0.152;2023-04-30T14:44:30;23.90;99.90
10175;DHT22;18221;38.704;0.152;2023-04-30T14:46:59;23.80;99.90
10175;DHT22;18221;38.704;0.152;2023-04-30T14:49:30;23.70;99.90
10175;DHT22;18221;38.704;0.152;2023-04-30T14:52:05;23.70;99.90
10175;DHT22;18221;38.704;0.152;2023-04-30T14:54:34;23.50;99.90
10175;DHT22;18221;38.704;0.152;2023-04-30T14:57:03;23.30;99.90
10175;DHT22;18221;38.704;0.152;2023-04-30T14:59:31;23.20;99.90
10175;DHT22;18221;38.704;0.152;2023-04-30T15:02:00;23.10;99.90
10175;DHT22;18221;38.704;0.152;2023-04-30T15:04:31;23.20;99.90
10175;DHT22;18221;38.704;0.152;2023-04-30T15:07:00;23.40;99.90
10175;DHT22;18221;38.704;0.152;2023-04-30T15:09:29;23.70;99.90
10175;DHT22;18221;38.704;0.152;2023-04-30T15:11:58;23.90;99.90
10175;DHT22;18221;38.704;0.152;2023-04-30T15:14:27;23.80;99.90
10175;DHT22;18221;38.704;0.152;2023-04-30T15:16:56;24.00;99.90
10175;DHT22;18221;38.704;0.152;2023-04-30T15:19:24;24.00;99.90
10175;DHT22;18221;38.704;0.152;2023-04-30T15:21:55;24.10;99.90
10175;DHT22;18221;38.704;0.152;2023-04-30T15:24:24;24.20;99.90
10175;DHT22;18221;38.704;0.152;2023-04-30T15:26:52;24.30;99.90
10175;DHT22;18221;38.704;0.152;2023-04-30T15:29:22;24.20;99.90
10175;DHT22;18221;38.704;0.152;2023-04-30T15:31:51;24.10;99.90
10175;DHT22;18221;38.704;0.152;2023-04-30T15:34:21;23.90;99.90
10175;DHT22;18221;38.704;0.152;2023-04-30T15:36:49;23.70;99.90
10175;DHT22;18221;38.704;0.152;2023-04-30T15:39:20;23.60;99.90
10175;DHT22;18221;38.704;0.152;2023-04-30T15:41:52;23.50;99.90
10175;DHT22;18221;38.704;0.152;2023-04-30T15:44:20;23.60;99.90
10175;DHT22;18221;38.704;0.152;2023-04-30T15:46:49;23.40;99.90
10175;DHT22;18221;38.704;0.152;2023-04-30T15:49:19;23.40;99.90
10175;DHT22;18221;38.704;0.152;2023-04-30T15:51:51;23.50;99.90
10175;DHT22;18221;38.704;0.152;2023-04-30T15:54:21;23.60;99.90